createdAt,value
2018-11-07T00:01:23.372Z,14.20
2018-11-07T00:06:27.033Z,13.27
2018-11-07T00:11:30.642Z,13.20
2018-11-07T00:16:34.167Z,12.57
2018-11-07T00:21:37.722Z,12.97
2018-11-07T00:26:41.416Z,13.03
2018-11-07T00:31:46.078Z,12.70
2018-11-07T00:36:49.687Z,12.80
2018-11-07T00:41:53.339Z,12.20
2018-11-07T00:46:56.910Z,12.07
2018-11-07T00:52:00.430Z,11.57
2018-11-07T00:57:05.326Z,11.20
2018-11-07T01:02:09.998Z,12.10
2018-11-07T01:07:13.742Z,10.67
2018-11-07T01:12:17.334Z,12.73
2018-11-07T01:17:20.951Z,11.27
2018-11-07T01:22:24.597Z,11.47
2018-11-07T01:27:30.070Z,12.27
2018-11-07T01:32:33.575Z,13.70
2018-11-07T01:37:37.150Z,15.87
2018-11-07T01:42:40.726Z,14.17
2018-11-07T01:47:44.242Z,14.87
2018-11-07T01:52:47.835Z,16.63
2018-11-07T01:57:51.410Z,17.97
2018-11-07T02:02:55.100Z,17.60
2018-11-07T02:07:58.754Z,16.57
2018-11-07T02:13:02.358Z,16.73
2018-11-07T02:18:06.395Z,15.97
2018-11-07T02:23:09.962Z,15.70
2018-11-07T02:28:13.545Z,14.63
2018-11-07T02:33:17.802Z,15.03
2018-11-07T02:38:21.348Z,14.23
2018-11-07T02:43:24.885Z,14.00
2018-11-07T02:48:28.585Z,13.27
2018-11-07T02:53:32.260Z,13.30
2018-11-07T02:58:35.931Z,13.60
2018-11-07T03:03:39.491Z,11.53
2018-11-07T03:08:43.221Z,10.70
2018-11-07T03:13:46.884Z,11.40
2018-11-07T03:18:50.518Z,9.73
2018-11-07T03:23:54.038Z,9.93
2018-11-07T03:28:57.734Z,10.93
2018-11-07T03:34:01.270Z,12.10
2018-11-07T03:39:09.036Z,12.07
2018-11-07T03:44:12.622Z,12.47
2018-11-07T03:49:16.223Z,13.80
2018-11-07T03:54:19.793Z,11.70
2018-11-07T03:59:23.429Z,10.30
2018-11-07T04:04:26.954Z,10.40
2018-11-07T04:09:32.754Z,9.97
2018-11-07T04:14:36.282Z,9.40
2018-11-07T04:19:39.835Z,12.37
2018-11-07T04:24:43.528Z,11.47
2018-11-07T04:29:47.118Z,10.20
2018-11-07T04:34:50.890Z,9.90
2018-11-07T04:39:54.510Z,9.63
2018-11-07T04:44:58.107Z,9.73
2018-11-07T04:50:01.680Z,8.37
2018-11-07T04:55:05.638Z,8.60
2018-11-07T05:00:10.907Z,9.40
2018-11-07T05:05:14.458Z,9.67
2018-11-07T05:10:18.214Z,10.10
2018-11-07T05:15:21.786Z,10.57
2018-11-07T05:20:25.319Z,10.00
2018-11-07T05:25:29.982Z,11.43
2018-11-07T05:30:33.623Z,11.60
2018-11-07T05:35:37.225Z,13.27
2018-11-07T05:40:40.819Z,14.30
2018-11-07T05:45:45.470Z,15.10
2018-11-07T05:50:49.441Z,13.83
2018-11-07T05:55:53.526Z,14.83
2018-11-07T06:00:57.211Z,14.23
2018-11-07T06:06:00.838Z,13.10
2018-11-07T06:11:04.745Z,12.17
2018-11-07T06:16:08.710Z,11.87
2018-11-07T06:21:12.346Z,11.53
2018-11-07T06:26:15.917Z,13.07
2018-11-07T06:31:19.589Z,13.03
2018-11-07T06:36:23.370Z,12.07
2018-11-07T06:41:26.994Z,11.77
2018-11-07T06:46:30.581Z,12.17
2018-11-07T06:51:34.211Z,12.40
2018-11-07T06:56:37.882Z,13.17
2018-11-07T07:01:41.754Z,11.20
2018-11-07T07:06:45.511Z,9.37
2018-11-07T07:11:49.329Z,10.27
2018-11-07T07:16:52.915Z,9.93
2018-11-07T07:21:56.544Z,9.83
2018-11-07T07:27:01.187Z,10.77
2018-11-07T07:32:05.159Z,13.10
2018-11-07T07:37:08.736Z,11.83
2018-11-07T07:42:12.650Z,10.83
2018-11-07T07:47:16.175Z,11.00
2018-11-07T07:52:19.960Z,7.27
2018-11-07T07:57:23.720Z,7.40
2018-11-07T08:02:27.242Z,6.57
2018-11-07T08:07:31.930Z,6.63
2018-11-07T08:12:35.750Z,6.93
2018-11-07T08:17:40.598Z,7.70
2018-11-07T08:22:44.957Z,7.90
2018-11-07T08:27:48.566Z,7.63
2018-11-07T08:32:52.082Z,7.43
2018-11-07T08:37:55.715Z,6.60
2018-11-07T08:42:59.258Z,7.07
2018-11-07T08:48:02.829Z,8.37
2018-11-07T08:53:06.386Z,8.27
2018-11-07T08:58:10.017Z,7.87
2018-11-07T09:03:13.715Z,7.77
2018-11-07T09:08:17.259Z,7.33
2018-11-07T09:13:21.047Z,8.13
2018-11-07T09:18:24.740Z,6.10
2018-11-07T09:23:28.279Z,7.70
2018-11-07T09:28:31.886Z,6.93
2018-11-07T09:33:35.415Z,6.27
2018-11-07T09:38:39.005Z,6.73
2018-11-07T09:43:42.679Z,5.40
2018-11-07T09:48:46.291Z,4.70
2018-11-07T09:53:49.916Z,4.20
2018-11-07T09:58:54.675Z,5.27
2018-11-07T10:03:58.294Z,4.70
2018-11-07T10:09:02.010Z,4.67
2018-11-07T10:14:06.104Z,4.73
2018-11-07T10:19:09.660Z,4.00
2018-11-07T10:24:13.607Z,4.60
2018-11-07T10:29:17.476Z,5.10
2018-11-07T10:34:20.888Z,5.57
2018-11-07T10:39:25.562Z,4.80
2018-11-07T10:44:29.312Z,2.50
2018-11-07T10:49:32.779Z,2.00
2018-11-07T10:54:36.402Z,1.90
2018-11-07T10:59:41.238Z,1.70
2018-11-07T11:04:44.928Z,1.47
2018-11-07T11:09:48.590Z,1.60
2018-11-07T11:14:52.267Z,2.00
2018-11-07T11:19:55.888Z,1.70
2018-11-07T11:24:59.507Z,1.60
2018-11-07T11:30:03.134Z,1.40
2018-11-07T11:35:07.824Z,1.50
2018-11-07T11:40:14.460Z,1.10
2018-11-07T11:45:18.179Z,1.30
2018-11-07T11:50:22.123Z,1.60
2018-11-07T11:55:25.719Z,1.20
2018-11-07T12:00:29.529Z,1.30
2018-11-07T12:05:33.035Z,1.10
2018-11-07T12:10:36.586Z,1.37
2018-11-07T12:15:40.275Z,1.30
2018-11-07T12:20:44.075Z,1.10
2018-11-07T12:25:47.682Z,1.03
2018-11-07T12:30:51.244Z,0.90
2018-11-07T12:35:54.782Z,1.10
2018-11-07T12:40:58.419Z,1.20
2018-11-07T12:46:02.211Z,1.30
2018-11-07T12:51:06.255Z,1.30
2018-11-07T12:56:09.910Z,1.30
2018-11-07T13:01:14.831Z,1.10
2018-11-07T13:06:18.439Z,1.20
2018-11-07T13:11:22.244Z,1.17
2018-11-07T13:16:25.987Z,1.00
2018-11-07T13:21:29.640Z,1.10
2018-11-07T13:26:34.061Z,1.00
2018-11-07T13:31:37.760Z,2.00
2018-11-07T13:36:43.804Z,2.00
2018-11-07T13:41:47.597Z,2.07
2018-11-07T13:46:55.491Z,2.10
2018-11-07T13:52:01.707Z,1.90
2018-11-07T13:57:07.440Z,1.63
2018-11-07T14:02:16.078Z,2.17
2018-11-07T14:07:19.824Z,1.80
2018-11-07T14:12:23.490Z,2.00
2018-11-07T14:17:29.844Z,2.10
2018-11-07T14:22:33.538Z,2.17
2018-11-07T14:27:37.443Z,1.90
2018-11-07T14:32:49.167Z,2.20
2018-11-07T14:37:53.556Z,2.43
2018-11-07T14:42:57.618Z,2.57
2018-11-07T14:48:02.339Z,2.37
2018-11-07T14:53:06.456Z,2.70
2018-11-07T14:58:10.163Z,2.47
2018-11-07T15:03:13.879Z,2.80
2018-11-07T15:08:17.814Z,2.90
2018-11-07T15:13:21.406Z,3.30
2018-11-07T15:18:25.375Z,2.83
2018-11-07T15:23:31.327Z,2.60
2018-11-07T15:28:35.012Z,3.00
2018-11-07T15:33:42.143Z,3.03
2018-11-07T15:38:45.767Z,2.97
2018-11-07T15:43:49.442Z,3.13
2018-11-07T15:54:26.436Z,3.90
2018-11-07T15:59:30.220Z,7.47
2018-11-07T16:04:33.893Z,4.00
2018-11-07T16:09:41.252Z,5.87
2018-11-07T16:14:44.799Z,4.60
2018-11-07T16:19:48.472Z,6.03
2018-11-07T16:24:52.098Z,9.40
2018-11-07T16:29:56.508Z,7.30
2018-11-07T16:35:09.704Z,5.17
2018-11-07T16:40:14.860Z,5.37
2018-11-07T16:45:18.856Z,5.70
2018-11-07T16:50:22.674Z,5.40
2018-11-07T16:55:26.442Z,5.87
2018-11-07T17:00:30.007Z,4.90
2018-11-07T17:05:33.806Z,5.30
2018-11-07T17:10:37.629Z,6.30
2018-11-07T17:15:41.361Z,5.17
2018-11-07T17:20:45.353Z,5.10
2018-11-07T17:31:02.238Z,6.40
2018-11-07T17:36:06.010Z,9.00
2018-11-07T17:41:09.756Z,9.27
2018-11-07T17:46:13.408Z,9.73
2018-11-07T17:51:17.519Z,9.93
2018-11-07T17:56:22.580Z,9.80
2018-11-07T18:01:27.311Z,9.63
2018-11-07T18:06:30.907Z,9.27
2018-11-07T18:11:34.811Z,9.60
2018-11-07T18:16:38.658Z,13.87
2018-11-07T18:21:42.556Z,9.43
2018-11-07T18:26:47.243Z,29.60
2018-11-07T18:31:50.895Z,36.10
2018-11-07T18:36:55.687Z,22.03
2018-11-07T18:42:02.344Z,48.87
2018-11-07T18:47:06.075Z,16.60
2018-11-07T18:57:26.410Z,14.13
2018-11-07T19:02:31.125Z,10.77
2018-11-07T19:07:35.105Z,13.40
2018-11-07T19:12:39.969Z,9.23
2018-11-07T19:17:46.366Z,10.73
2018-11-07T19:22:50.564Z,20.30
2018-11-07T19:27:54.342Z,10.37
2018-11-07T19:32:58.866Z,13.63
2018-11-07T19:38:04.518Z,8.87
2018-11-07T19:43:08.242Z,10.47
2018-11-07T19:48:12.486Z,17.97
2018-11-07T19:53:17.106Z,25.10
2018-11-07T19:58:21.234Z,23.60
2018-11-07T20:03:24.979Z,12.43
2018-11-07T20:08:28.702Z,24.37
2018-11-07T20:13:32.272Z,5.47
2018-11-07T20:18:36.591Z,5.60
2018-11-07T20:23:41.941Z,6.53
2018-11-07T20:28:45.829Z,5.90
2018-11-07T20:33:49.362Z,6.23
2018-11-07T20:39:04.781Z,8.10
2018-11-07T20:44:09.739Z,7.90
2018-11-07T20:49:13.379Z,14.90
2018-11-07T20:54:17.007Z,7.37
2018-11-07T20:59:20.615Z,5.97
2018-11-07T21:04:24.795Z,6.17
2018-11-07T21:09:28.402Z,5.77
2018-11-07T21:14:31.958Z,6.10
2018-11-07T21:19:35.614Z,7.27
2018-11-07T21:24:39.851Z,7.33
2018-11-07T21:29:43.608Z,7.10
2018-11-07T21:34:47.229Z,6.27
2018-11-07T21:45:09.849Z,6.50
2018-11-07T21:50:15.103Z,7.60
2018-11-07T21:55:18.981Z,4.77
2018-11-07T22:00:24.577Z,5.17
2018-11-07T22:05:28.436Z,5.47
2018-11-07T22:10:32.046Z,4.73
2018-11-07T22:15:42.670Z,4.70
2018-11-07T22:20:46.284Z,6.37
2018-11-07T22:25:50.300Z,5.30
2018-11-07T22:30:54.289Z,4.80
2018-11-07T22:35:59.583Z,5.13
2018-11-07T22:41:03.386Z,4.80
2018-11-07T22:46:07.126Z,6.47
2018-11-07T22:51:12.450Z,6.50
2018-11-07T22:56:16.708Z,7.40
2018-11-07T23:01:21.451Z,7.37
2018-11-07T23:06:25.860Z,7.83
2018-11-07T23:11:29.584Z,8.30
2018-11-07T23:16:33.132Z,6.87
2018-11-07T23:21:37.073Z,6.90
2018-11-07T23:26:40.795Z,7.67
2018-11-07T23:31:45.401Z,6.83
2018-11-07T23:36:49.015Z,9.03
2018-11-07T23:41:52.636Z,6.90
2018-11-07T23:46:57.031Z,7.63
2018-11-07T23:52:00.660Z,8.63
2018-11-07T23:57:04.345Z,7.27
